Time;durP1;ratioP1;P1;durP2;ratioP2;P2;SDS_P1;SDS_P2;PMS_P1;PMS_P2;Temp;Humidity;BMP_temperature;BMP_pressure;BME280_temperature;BME280_humidity;BME280_pressure;Samples;Min_cycle;Max_cycle;Signal;HPM_P1;HPM_P2
2023/05/08 00:03:10;;;;;;;5.53;4.83;;;17.40;75.00;;;;;;21252837;27;20227;-68
2023/05/08 00:13:12;;;;;;;6.50;5.60;;;17.30;74.40;;;;;;21250360;27;20284;-69
2023/05/08 00:23:14;;;;;;;5.83;5.23;;;17.30;74.90;;;;;;21249903;27;20274;-70
2023/05/08 00:33:15;;;;;;;8.47;5.80;;;17.30;75.20;;;;;;21249629;27;20197;-70
2023/05/08 00:43:24;;;;;;;6.37;5.50;;;17.20;75.50;;;;;;21248872;27;20688;-71
2023/05/08 00:53:26;;;;;;;7.43;5.53;;;17.20;75.70;;;;;;21248053;27;20708;-69
2023/05/08 01:03:29;;;;;;;6.60;6.00;;;17.10;75.80;;;;;;21247941;28;20713;-70
2023/05/08 01:14:08;;;;;;;6.87;6.17;;;17.00;76.20;;;;;;21247197;28;20197;-71
2023/05/08 01:24:44;;;;;;;6.80;6.10;;;16.90;76.50;;;;;;21253301;27;20228;-71
2023/05/08 01:35:07;;;;;;;6.67;6.00;;;16.80;76.90;;;;;;21263468;27;20211;-70
2023/05/08 01:45:17;;;;;;;7.17;6.03;;;16.70;77.20;;;;;;21262094;27;20236;-70
2023/05/08 01:55:26;;;;;;;6.77;6.00;;;16.70;77.70;;;;;;21261315;27;20236;-69
2023/05/08 02:05:28;;;;;;;7.37;6.33;;;16.60;77.70;;;;;;21261088;27;20228;-70
2023/05/08 02:15:34;;;;;;;6.70;6.00;;;16.60;78.00;;;;;;21259819;27;20193;-69
2023/05/08 02:25:37;;;;;;;6.83;6.13;;;16.40;78.00;;;;;;21259145;27;20283;-69
2023/05/08 02:35:42;;;;;;;7.47;6.27;;;16.30;78.60;;;;;;21258820;27;20207;-71
2023/05/08 02:45:52;;;;;;;7.53;6.47;;;16.30;79.10;;;;;;21257999;27;20290;-71
2023/05/08 02:55:59;;;;;;;6.90;6.20;;;16.30;79.10;;;;;;21256611;27;20279;-69
2023/05/08 03:06:02;;;;;;;7.33;6.60;;;16.10;79.60;;;;;;21256262;27;20240;-69
2023/05/08 03:16:08;;;;;;;8.73;6.07;;;15.90;79.40;;;;;;21254960;27;20208;-69
2023/05/08 03:26:11;;;;;;;8.43;6.63;;;16.00;80.20;;;;;;21254357;27;20243;-69
2023/05/08 03:36:16;;;;;;;8.30;6.23;;;15.90;80.40;;;;;;21254193;27;20208;-69
2023/05/08 03:46:19;;;;;;;8.43;6.50;;;15.90;80.90;;;;;;21252327;27;20244;-70
2023/05/08 03:56:21;;;;;;;8.40;6.13;;;16.00;81.10;;;;;;21233469;27;20266;-69
2023/05/08 04:06:42;;;;;;;8.30;6.37;;;15.90;81.50;;;;;;21251688;27;20229;-69
2023/05/08 04:16:56;;;;;;;6.87;5.77;;;16.00;82.60;;;;;;21233255;27;20257;-69
2023/05/08 04:26:59;;;;;;;9.90;6.43;;;16.00;83.90;;;;;;21249395;27;20228;-68
2023/05/08 04:37:00;;;;;;;8.37;6.70;;;15.90;84.20;;;;;;21248601;27;20246;-69
2023/05/08 04:47:02;;;;;;;13.17;6.80;;;15.90;85.20;;;;;;21248565;27;20239;-69
2023/05/08 04:57:06;;;;;;;7.47;6.40;;;16.00;85.90;;;;;;21256181;27;20212;-68
2023/05/08 05:07:07;;;;;;;7.97;6.50;;;15.80;85.70;;;;;;21275899;27;20285;-70
2023/05/08 05:17:09;;;;;;;7.20;6.50;;;15.90;86.10;;;;;;21277319;27;20257;-69
2023/05/08 05:27:11;;;;;;;6.90;6.20;;;15.90;86.50;;;;;;21277166;27;20231;-69
2023/05/08 05:37:12;;;;;;;7.03;5.87;;;16.10;86.80;;;;;;21275336;27;20205;-69
2023/05/08 05:47:14;;;;;;;7.00;5.87;;;16.10;86.90;;;;;;21274690;27;20262;-69
2023/05/08 05:57:16;;;;;;;6.23;5.63;;;16.10;87.10;;;;;;21273717;27;20255;-70
2023/05/08 06:07:19;;;;;;;6.73;6.10;;;16.10;87.70;;;;;;21270266;27;20282;-70
2023/05/08 06:17:21;;;;;;;6.07;5.47;;;16.10;87.40;;;;;;21259313;27;20665;-70
2023/05/08 06:27:23;;;;;;;6.77;6.00;;;16.20;87.30;;;;;;21236366;27;20242;-70
2023/05/08 06:37:25;;;;;;;7.07;5.63;;;16.20;86.30;;;;;;21215963;27;20213;-67
2023/05/08 06:47:27;;;;;;;7.10;6.17;;;16.30;85.70;;;;;;21209342;27;20295;-68
2023/05/08 06:57:29;;;;;;;7.33;5.40;;;16.50;84.20;;;;;;21213449;27;20206;-69
2023/05/08 07:07:31;;;;;;;8.27;6.23;;;16.60;83.30;;;;;;21213169;27;20235;-71
2023/05/08 07:17:35;;;;;;;7.37;5.70;;;16.80;83.30;;;;;;21206934;27;20202;-70
2023/05/08 07:27:37;;;;;;;7.90;6.17;;;17.00;83.30;;;;;;21211379;27;20695;-67
2023/05/08 07:37:39;;;;;;;8.53;5.70;;;17.30;82.40;;;;;;21206704;27;20601;-68
2023/05/08 07:47:52;;;;;;;6.70;5.70;;;17.30;80.90;;;;;;21211029;27;20239;-69
2023/05/08 07:57:54;;;;;;;9.07;6.40;;;17.60;80.60;;;;;;21208629;27;20293;-67
2023/05/08 08:07:55;;;;;;;9.53;6.07;;;17.80;79.70;;;;;;21209569;27;20238;-68
2023/05/08 08:17:57;;;;;;;9.30;6.20;;;18.00;78.90;;;;;;21188657;27;20567;-69
2023/05/08 08:27:59;;;;;;;8.33;6.00;;;18.70;78.80;;;;;;21194811;27;20682;-68
2023/05/08 08:38:01;;;;;;;7.20;5.50;;;18.70;79.40;;;;;;21205843;27;20249;-69
2023/05/08 08:48:03;;;;;;;7.77;5.60;;;19.20;76.80;;;;;;21200311;27;20332;-70
2023/05/08 08:58:18;;;;;;;6.97;5.90;;;19.20;77.50;;;;;;21206322;27;20659;-69
2023/05/08 09:08:21;;;;;;;6.53;5.90;;;19.40;76.40;;;;;;21204930;28;20530;-69
2023/05/08 09:18:22;;;;;;;7.57;6.13;;;19.50;75.20;;;;;;21198061;28;20202;-70
2023/05/08 09:28:25;;;;;;;9.23;6.30;;;19.80;75.00;;;;;;21202492;28;20279;-71
2023/05/08 09:38:34;;;;;;;8.27;6.37;;;19.90;74.30;;;;;;21204249;28;20244;-68
2023/05/08 09:48:37;;;;;;;8.87;6.53;;;20.10;72.60;;;;;;21211321;27;20241;-71
2023/05/08 09:58:40;;;;;;;8.73;5.87;;;20.10;73.40;;;;;;21207142;27;20204;-71
2023/05/08 10:08:42;;;;;;;9.00;6.67;;;20.10;72.20;;;;;;21217464;27;20230;-67
2023/05/08 10:18:49;;;;;;;7.83;7.00;;;20.10;72.60;;;;;;21217420;27;20202;-68
2023/05/08 10:29:06;;;;;;;8.47;7.30;;;20.20;72.80;;;;;;21212977;27;20230;-71
2023/05/08 10:39:08;;;;;;;11.80;7.80;;;19.90;74.40;;;;;;21210871;27;20213;-75
2023/05/08 10:49:22;;;;;;;9.33;8.33;;;19.90;75.20;;;;;;21217137;27;20246;-76
2023/05/08 10:59:23;;;;;;;9.83;8.80;;;19.70;78.50;;;;;;21222710;27;20240;-74
2023/05/08 11:09:43;;;;;;;14.90;10.00;;;19.50;79.00;;;;;;21217642;27;20246;-75
2023/05/08 11:19:55;;;;;;;12.73;9.77;;;19.30;81.50;;;;;;21211842;27;20220;-76
2023/05/08 11:30:24;;;;;;;10.83;9.63;;;19.20;82.30;;;;;;21206421;27;20231;-77
2023/05/08 11:40:47;;;;;;;16.77;9.93;;;19.00;84.00;;;;;;21205088;27;20308;-77
2023/05/08 11:50:50;;;;;;;13.60;10.53;;;18.80;85.80;;;;;;21211565;27;20310;-76
2023/05/08 12:00:52;;;;;;;12.23;10.93;;;18.90;87.00;;;;;;21209133;27;20214;-75
2023/05/08 12:10:55;;;;;;;15.90;10.80;;;19.00;88.00;;;;;;21161354;27;20234;-74
2023/05/08 12:20:59;;;;;;;13.13;11.50;;;19.10;89.10;;;;;;21164035;28;20668;-73
2023/05/08 12:31:01;;;;;;;13.80;11.73;;;19.10;90.00;;;;;;21164301;28;20628;-73
2023/05/08 12:41:05;;;;;;;16.17;10.77;;;19.40;90.40;;;;;;21164553;28;20217;-73
2023/05/08 12:51:10;;;;;;;13.83;11.53;;;19.60;90.20;;;;;;21162686;28;20623;-72
2023/05/08 13:01:12;;;;;;;12.23;10.93;;;19.80;90.00;;;;;;21162674;28;20235;-72
2023/05/08 13:11:28;;;;;;;12.73;11.33;;;20.10;89.70;;;;;;21181286;28;20295;-75
2023/05/08 13:21:30;;;;;;;13.07;11.70;;;20.60;89.10;;;;;;21244608;27;20209;-75
2023/05/08 13:31:32;;;;;;;12.40;11.03;;;21.20;88.60;;;;;;21248022;27;20255;-74
2023/05/08 13:41:33;;;;;;;14.27;11.30;;;21.70;86.60;;;;;;21205571;27;20228;-71
2023/05/08 13:51:35;;;;;;;12.67;11.37;;;21.80;84.90;;;;;;21176651;28;20274;-72
2023/05/08 14:01:37;;;;;;;13.87;11.47;;;22.00;83.60;;;;;;21176280;28;20230;-72
2023/05/08 14:11:38;;;;;;;14.67;11.37;;;21.50;81.80;;;;;;21174953;28;20206;-73
2023/05/08 14:21:40;;;;;;;12.60;11.30;;;21.00;82.00;;;;;;21174691;28;20230;-72
2023/05/08 14:31:42;;;;;;;13.93;12.23;;;20.50;83.10;;;;;;21174324;28;20313;-72
2023/05/08 14:41:44;;;;;;;15.03;12.50;;;20.10;83.90;;;;;;21174714;28;20234;-72
2023/05/08 14:52:06;;;;;;;14.27;11.87;;;19.80;83.80;;;;;;21156722;28;20237;-72
2023/05/08 15:02:07;;;;;;;13.80;11.80;;;19.60;85.20;;;;;;21171213;28;20280;-72
2023/05/08 15:12:09;;;;;;;17.67;11.80;;;19.60;85.10;;;;;;21170050;28;20208;-72
2023/05/08 15:22:12;;;;;;;15.90;13.37;;;19.60;84.50;;;;;;21169965;27;20782;-74
2023/05/08 15:32:14;;;;;;;16.57;13.13;;;19.60;84.70;;;;;;21211010;27;20213;-76
2023/05/08 15:42:16;;;;;;;16.50;11.63;;;19.60;84.70;;;;;;21197542;27;20232;-75
2023/05/08 15:52:18;;;;;;;14.90;12.27;;;19.60;85.60;;;;;;21176930;27;20241;-76
2023/05/08 16:02:20;;;;;;;13.83;12.33;;;19.60;86.60;;;;;;21166861;28;20237;-81
2023/05/08 16:12:22;;;;;;;18.43;12.83;;;19.70;85.90;;;;;;21165736;28;20205;-79
2023/05/08 16:22:24;;;;;;;15.03;12.10;;;19.80;86.50;;;;;;21165588;28;20229;-73
2023/05/08 16:32:26;;;;;;;17.30;12.50;;;19.70;86.00;;;;;;21165136;28;20205;-72
2023/05/08 16:42:27;;;;;;;15.77;13.53;;;19.60;86.40;;;;;;21192754;27;20269;-72
2023/05/08 16:52:31;;;;;;;15.57;13.33;;;19.60;86.80;;;;;;21162773;28;20233;-74
2023/05/08 17:02:33;;;;;;;14.37;12.80;;;19.40;87.50;;;;;;21163229;28;20746;-77
2023/05/08 17:12:35;;;;;;;17.73;13.67;;;19.40;88.30;;;;;;21164376;28;20664;-76
2023/05/08 17:22:36;;;;;;;16.33;13.43;;;19.20;89.10;;;;;;21162605;28;20231;-74
2023/05/08 17:32:38;;;;;;;17.97;13.97;;;19.10;90.00;;;;;;21167360;28;20746;-76
2023/05/08 17:42:40;;;;;;;17.43;13.57;;;18.90;90.40;;;;;;21239378;28;20243;-77
2023/05/08 17:52:43;;;;;;;16.40;13.73;;;18.80;90.70;;;;;;21249225;27;20227;-77
2023/05/08 18:02:45;;;;;;;17.23;13.90;;;18.70;91.10;;;;;;21247451;27;20227;-73
2023/05/08 18:12:46;;;;;;;16.90;14.13;;;18.60;91.40;;;;;;21266050;27;20600;-72
2023/05/08 18:22:49;;;;;;;18.30;13.63;;;18.50;91.80;;;;;;21266307;27;20337;-72
2023/05/08 18:32:51;;;;;;;15.37;13.10;;;18.40;92.20;;;;;;21256054;27;20263;-75
2023/05/08 18:42:53;;;;;;;18.83;13.33;;;18.30;92.50;;;;;;21200866;27;20225;-75
2023/05/08 18:52:55;;;;;;;16.80;14.33;;;18.20;92.80;;;;;;21208673;27;20703;-75
2023/05/08 19:02:57;;;;;;;17.67;14.23;;;18.20;93.20;;;;;;21202588;27;20238;-74
2023/05/08 19:13:00;;;;;;;16.23;13.27;;;18.00;93.40;;;;;;21195228;27;20315;-75
2023/05/08 19:23:02;;;;;;;17.07;14.57;;;18.00;93.80;;;;;;21208820;27;20243;-77
2023/05/08 19:33:04;;;;;;;17.57;14.83;;;17.90;94.10;;;;;;21212348;27;20567;-79
2023/05/08 19:43:06;;;;;;;17.00;14.10;;;17.90;94.50;;;;;;21211080;27;20285;-76
2023/05/08 19:53:08;;;;;;;20.77;16.40;;;17.80;94.90;;;;;;21212751;27;20296;-77
2023/05/08 20:03:09;;;;;;;18.00;14.07;;;17.70;95.30;;;;;;21181297;27;20234;-77
2023/05/08 20:13:11;;;;;;;23.07;14.10;;;17.60;95.60;;;;;;21209710;27;20242;-78
2023/05/08 20:23:13;;;;;;;20.07;13.50;;;17.40;96.10;;;;;;21208765;27;20275;-78
2023/05/08 20:33:15;;;;;;;18.17;14.20;;;17.50;96.60;;;;;;21202444;27;20238;-75
2023/05/08 20:43:18;;;;;;;15.37;13.07;;;17.50;97.00;;;;;;21207847;27;20245;-78
2023/05/08 20:53:20;;;;;;;16.60;13.97;;;17.40;97.20;;;;;;21206537;27;20231;-76
2023/05/08 21:03:22;;;;;;;20.50;15.90;;;17.40;97.30;;;;;;21174712;27;20230;-74
2023/05/08 21:13:23;;;;;;;17.70;13.83;;;17.40;97.60;;;;;;21162788;28;20664;-74
2023/05/08 21:23:26;;;;;;;19.97;15.80;;;17.40;97.90;;;;;;21162183;28;20263;-76
2023/05/08 21:33:27;;;;;;;16.97;14.03;;;17.40;98.20;;;;;;21162565;28;20345;-76
2023/05/08 21:43:29;;;;;;;20.13;14.60;;;17.30;98.60;;;;;;21172718;28;20319;-76
2023/05/08 21:53:31;;;;;;;21.47;14.60;;;17.20;99.10;;;;;;21188180;28;20236;-77
2023/05/08 22:03:33;;;;;;;20.37;15.80;;;17.30;99.50;;;;;;21210717;28;20645;-77
2023/05/08 22:13:35;;;;;;;18.57;14.97;;;17.30;99.70;;;;;;21182616;28;20255;-73
2023/05/08 22:23:37;;;;;;;21.20;16.60;;;17.30;99.90;;;;;;21174934;28;20636;-72
2023/05/08 22:33:38;;;;;;;18.83;16.07;;;17.20;99.90;;;;;;21174413;28;20255;-72
2023/05/08 22:43:40;;;;;;;19.23;16.17;;;17.10;99.90;;;;;;21173299;28;20291;-72
2023/05/08 22:53:42;;;;;;;23.30;15.93;;;17.10;99.90;;;;;;21171779;28;20230;-73
2023/05/08 23:03:44;;;;;;;20.03;16.33;;;17.10;99.90;;;;;;21170656;28;20231;-73
2023/05/08 23:13:45;;;;;;;22.23;16.53;;;17.10;99.90;;;;;;21171308;28;20210;-72
2023/05/08 23:23:47;;;;;;;21.37;17.03;;;17.00;99.90;;;;;;21169961;28;20230;-72
2023/05/08 23:33:49;;;;;;;22.50;16.83;;;16.90;99.90;;;;;;21170209;28;20663;-71
2023/05/08 23:43:50;;;;;;;20.40;16.53;;;16.90;99.90;;;;;;21168846;28;20286;-72
2023/05/08 23:53:52;;;;;;;22.97;16.23;;;16.90;99.90;;;;;;21168018;28;20242;-72
